Isuzu Maru — JD3515 — position and weather

sailwx.info

Track history (hours):
 
Tides and Currents Weather Stations Pressure Air Temp Water Temp Dewpoint Dewpoint Depression Visibility Wind Speed Wind Dir Waves Ship Positions

Isuzu Maru

Last reported at 2018-Jan-23 07:49 UTC. Time now 2018-Jan-23 08:05 UTC.
Position N 33°50' E 132°19'.

Length 74 m; draft 4.5 m.

Type: Tanker. MMSI: 431004619.

Date/timePositionNaut miles runAvg speedWind from/ knotsBaromVisibWave heightAir tempDewpointWater temp
2018-Jan-23 07:49N 33°50' E 132°19'412.2
2018-Jan-23 07:30N 33°50' E 132°14'711.6
2018-Jan-23 06:54N 33°47' E 132°07'912.1
2018-Jan-23 06:09N 33°45' E 131°56'312.6
2018-Jan-23 05:56N 33°46' E 131°53'612.8
2018-Jan-23 05:28N 33°47' E 131°46'612.8
2018-Jan-23 05:00N 33°48' E 131°39'612.7
2018-Jan-23 04:30N 33°49' E 131°31'612.6
2018-Jan-23 04:00N 33°51' E 131°24'612.6
2018-Jan-23 03:30N 33°52' E 131°16'510.6
2018-Jan-23 03:00N 33°55' E 131°12'1 1.7
2018-Jan-23 02:30N 33°56' E 131°11'0 0.0
2018-Jan-23 02:00N 33°56' E 131°11'0 0.0
2018-Jan-23 01:30N 33°56' E 131°11'0 0.0
2018-Jan-23 01:00N 33°56' E 131°11'0 0.0
2018-Jan-23 00:30N 33°56' E 131°11'0 0.0
2018-Jan-23 00:00N 33°56' E 131°11'0 0.0
2018-Jan-22 23:30N 33°56' E 131°11'0 0.0
2018-Jan-22 22:59N 33°56' E 131°11'0 0.0
2018-Jan-22 22:30N 33°56' E 131°11'2 4.1
2018-Jan-22 22:00N 33°54' E 131°11'713.0
2018-Jan-22 21:30N 33°57' E 131°04'612.0
2018-Jan-22 21:01N 33°57' E 130°56'1 1.6
2018-Jan-22 20:30N 33°57' E 130°56'0 0.0
2018-Jan-22 20:00N 33°57' E 130°56'0 0.0
2018-Jan-22 19:30N 33°57' E 130°56'0 0.0
2018-Jan-22 19:00N 33°57' E 130°56'0 0.0
2018-Jan-22 18:30N 33°57' E 130°56'0 0.0
2018-Jan-22 18:00N 33°57' E 130°56'0 0.0
2018-Jan-22 17:30N 33°57' E 130°56'0 0.0
2018-Jan-22 17:00N 33°57' E 130°56'0 0.0
2018-Jan-22 16:30N 33°57' E 130°56'0 0.0
2018-Jan-22 16:00N 33°57' E 130°56'0 0.0
2018-Jan-22 15:30N 33°57' E 130°56'0 0.0
2018-Jan-22 15:00N 33°57' E 130°56'0 0.0
2018-Jan-22 14:30N 33°57' E 130°56'0 0.0
2018-Jan-22 14:01N 33°57' E 130°56'0 0.0
2018-Jan-22 13:30N 33°57' E 130°56'0 0.0
2018-Jan-22 13:00N 33°57' E 130°56'0 0.0
2018-Jan-22 12:30N 33°57' E 130°56'0 0.0
2018-Jan-22 12:00N 33°57' E 130°56'0 0.0
2018-Jan-22 11:30N 33°57' E 130°56'0 0.0
2018-Jan-22 11:00N 33°57' E 130°56'0 0.0
2018-Jan-22 10:30N 33°57' E 130°56'0 0.0
2018-Jan-22 10:00N 33°57' E 130°56'0 0.0
2018-Jan-22 09:30N 33°57' E 130°56'0 0.0
2018-Jan-22 09:00N 33°57' E 130°56'0 0.0
2018-Jan-22 08:30N 33°57' E 130°56'0 0.0
2018-Jan-22 08:00N 33°57' E 130°56'0 0.0
2018-Jan-22 07:30N 33°57' E 130°56'0 0.0
2018-Jan-22 07:00N 33°57' E 130°56'0 0.0
2018-Jan-22 06:30N 33°57' E 130°56'0 0.0
2018-Jan-22 06:00N 33°57' E 130°56'0 0.0
2018-Jan-22 05:30N 33°57' E 130°56'0 0.0
2018-Jan-22 05:00N 33°57' E 130°56'0 0.2
2018-Jan-22 04:30N 33°57' E 130°56'3 6.6
2018-Jan-22 04:00N 33°54' E 130°54'0 0.5
2018-Jan-22 03:30N 33°53' E 130°54'0 0.0
2018-Jan-22 03:00N 33°53' E 130°54'0 0.0
2018-Jan-22 02:30N 33°53' E 130°54'0 0.0
2018-Jan-22 02:00N 33°53' E 130°54'0 0.0
2018-Jan-22 01:30N 33°53' E 130°54'0 0.0
2018-Jan-22 01:00N 33°53' E 130°54'0 0.0
2018-Jan-22 00:30N 33°53' E 130°54'0 0.0
2018-Jan-22 00:00N 33°53' E 130°54'0 0.0
2018-Jan-21 23:30N 33°53' E 130°54'2 4.6
2018-Jan-21 23:00N 33°55' E 130°56'4 8.7
2018-Jan-21 22:30N 33°58' E 130°59'5 9.8
2018-Jan-21 22:01N 33°58' E 131°05'0 0.1
2018-Jan-21 21:25N 33°57' E 131°05'0 0.0
2018-Jan-21 20:58N 33°57' E 131°05'0 0.0
2018-Jan-21 20:28N 33°57' E 131°05'0 0.0
2018-Jan-21 19:58N 33°58' E 131°05'0 0.0
2018-Jan-21 19:28N 33°58' E 131°05'0 0.0
2018-Jan-21 18:58N 33°58' E 131°05'0 0.0
2018-Jan-21 18:28N 33°58' E 131°05'0 0.0
2018-Jan-21 17:58N 33°57' E 131°05'0 0.0
2018-Jan-21 17:30N 33°58' E 131°05'5 9.3
2018-Jan-21 17:00N 33°54' E 131°09'612.0
2018-Jan-21 16:30N 33°52' E 131°15'612.5
2018-Jan-21 16:00N 33°51' E 131°23'612.9
2018-Jan-21 15:30N 33°50' E 131°30'612.9
2018-Jan-21 15:00N 33°49' E 131°38'713.1
2018-Jan-21 14:30N 33°48' E 131°46'1013.0
2018-Jan-21 13:43N 33°46' E 131°58'312.5
2018-Jan-21 13:30N 33°46' E 132°01'812.2
2018-Jan-21 12:50N 33°49' E 132°10'412.1
2018-Jan-21 12:30N 33°50' E 132°15'1111.9
2018-Jan-21 11:33N 33°52' E 132°28'312.6
2018-Jan-21 11:20N 33°53' E 132°31'412.9
2018-Jan-21 11:00N 33°54' E 132°36'713.0
2018-Jan-21 10:29N 33°58' E 132°43'72 4.9
2018-Jan-20 19:32N 34°27' E 134°03'1812.0
2018-Jan-20 18:03N 34°21' E 134°24'112.7
2018-Jan-20 18:00N 34°21' E 134°24'713.0
2018-Jan-20 17:29N 34°18' E 134°32'613.1
2018-Jan-20 17:00N 34°15' E 134°39'911.0
2018-Jan-20 16:11N 34°07' E 134°43'312.8
2018-Jan-20 15:55N 34°04' E 134°44'612.7
2018-Jan-20 15:29N 33°59' E 134°47'712.9
2018-Jan-20 14:54N 33°52' E 134°51'1 0.0
2018-Jan-19 10:32N 33°51' E 134°51'012.2
2018-Jan-19 10:30N 33°52' E 134°51'612.5
2018-Jan-19 10:00N 33°57' E 134°48'612.8
2018-Jan-19 09:30N 34°03' E 134°45'712.7
2018-Jan-19 08:59N 34°09' E 134°42'612.7
2018-Jan-19 08:30N 34°15' E 134°38'612.2
2018-Jan-19 08:00N 34°18' E 134°32'712.9
2018-Jan-19 07:30N 34°20' E 134°25'  
Track history (hours):
 
Tides and Currents Weather Stations Pressure Air Temp Water Temp Dewpoint Dewpoint Depression Visibility Wind Speed Wind Dir Waves Ship Positions

Isuzu Maru

Last reported at 2018-Jan-23 07:49 UTC. Time now 2018-Jan-23 08:05 UTC.
Position N 33°50' E 132°19'.

Length 74 m; draft 4.5 m.

Type: Tanker. MMSI: 431004619.

Date/timePositionNaut miles runAvg speedWind from/ knotsBaromVisibWave heightAir tempDewpointWater temp
2018-Jan-23 07:49N 33°50' E 132°19'412.2
2018-Jan-23 07:30N 33°50' E 132°14'711.6
2018-Jan-23 06:54N 33°47' E 132°07'912.1
2018-Jan-23 06:09N 33°45' E 131°56'312.6
2018-Jan-23 05:56N 33°46' E 131°53'612.8
2018-Jan-23 05:28N 33°47' E 131°46'612.8
2018-Jan-23 05:00N 33°48' E 131°39'612.7
2018-Jan-23 04:30N 33°49' E 131°31'612.6
2018-Jan-23 04:00N 33°51' E 131°24'612.6
2018-Jan-23 03:30N 33°52' E 131°16'510.6
2018-Jan-23 03:00N 33°55' E 131°12'1 1.7
2018-Jan-23 02:30N 33°56' E 131°11'0 0.0
2018-Jan-23 02:00N 33°56' E 131°11'0 0.0
2018-Jan-23 01:30N 33°56' E 131°11'0 0.0
2018-Jan-23 01:00N 33°56' E 131°11'0 0.0
2018-Jan-23 00:30N 33°56' E 131°11'0 0.0
2018-Jan-23 00:00N 33°56' E 131°11'0 0.0
2018-Jan-22 23:30N 33°56' E 131°11'0 0.0
2018-Jan-22 22:59N 33°56' E 131°11'0 0.0
2018-Jan-22 22:30N 33°56' E 131°11'2 4.1
2018-Jan-22 22:00N 33°54' E 131°11'713.0
2018-Jan-22 21:30N 33°57' E 131°04'612.0
2018-Jan-22 21:01N 33°57' E 130°56'1 1.6
2018-Jan-22 20:30N 33°57' E 130°56'0 0.0
2018-Jan-22 20:00N 33°57' E 130°56'0 0.0
2018-Jan-22 19:30N 33°57' E 130°56'0 0.0
2018-Jan-22 19:00N 33°57' E 130°56'0 0.0
2018-Jan-22 18:30N 33°57' E 130°56'0 0.0
2018-Jan-22 18:00N 33°57' E 130°56'0 0.0
2018-Jan-22 17:30N 33°57' E 130°56'0 0.0
2018-Jan-22 17:00N 33°57' E 130°56'0 0.0
2018-Jan-22 16:30N 33°57' E 130°56'0 0.0
2018-Jan-22 16:00N 33°57' E 130°56'0 0.0
2018-Jan-22 15:30N 33°57' E 130°56'0 0.0
2018-Jan-22 15:00N 33°57' E 130°56'0 0.0
2018-Jan-22 14:30N 33°57' E 130°56'0 0.0
2018-Jan-22 14:01N 33°57' E 130°56'0 0.0
2018-Jan-22 13:30N 33°57' E 130°56'0 0.0
2018-Jan-22 13:00N 33°57' E 130°56'0 0.0
2018-Jan-22 12:30N 33°57' E 130°56'0 0.0
2018-Jan-22 12:00N 33°57' E 130°56'0 0.0
2018-Jan-22 11:30N 33°57' E 130°56'0 0.0
2018-Jan-22 11:00N 33°57' E 130°56'0 0.0
2018-Jan-22 10:30N 33°57' E 130°56'0 0.0
2018-Jan-22 10:00N 33°57' E 130°56'0 0.0
2018-Jan-22 09:30N 33°57' E 130°56'0 0.0
2018-Jan-22 09:00N 33°57' E 130°56'0 0.0
2018-Jan-22 08:30N 33°57' E 130°56'0 0.0
2018-Jan-22 08:00N 33°57' E 130°56'0 0.0
2018-Jan-22 07:30N 33°57' E 130°56'0 0.0
2018-Jan-22 07:00N 33°57' E 130°56'0 0.0
2018-Jan-22 06:30N 33°57' E 130°56'0 0.0
2018-Jan-22 06:00N 33°57' E 130°56'0 0.0
2018-Jan-22 05:30N 33°57' E 130°56'0 0.0
2018-Jan-22 05:00N 33°57' E 130°56'0 0.2
2018-Jan-22 04:30N 33°57' E 130°56'3 6.6
2018-Jan-22 04:00N 33°54' E 130°54'0 0.5
2018-Jan-22 03:30N 33°53' E 130°54'0 0.0
2018-Jan-22 03:00N 33°53' E 130°54'0 0.0
2018-Jan-22 02:30N 33°53' E 130°54'0 0.0
2018-Jan-22 02:00N 33°53' E 130°54'0 0.0
2018-Jan-22 01:30N 33°53' E 130°54'0 0.0
2018-Jan-22 01:00N 33°53' E 130°54'0 0.0
2018-Jan-22 00:30N 33°53' E 130°54'0 0.0
2018-Jan-22 00:00N 33°53' E 130°54'0 0.0
2018-Jan-21 23:30N 33°53' E 130°54'2 4.6
2018-Jan-21 23:00N 33°55' E 130°56'4 8.7
2018-Jan-21 22:30N 33°58' E 130°59'5 9.8
2018-Jan-21 22:01N 33°58' E 131°05'0 0.1
2018-Jan-21 21:25N 33°57' E 131°05'0 0.0
2018-Jan-21 20:58N 33°57' E 131°05'0 0.0
2018-Jan-21 20:28N 33°57' E 131°05'0 0.0
2018-Jan-21 19:58N 33°58' E 131°05'0 0.0
2018-Jan-21 19:28N 33°58' E 131°05'0 0.0
2018-Jan-21 18:58N 33°58' E 131°05'0 0.0
2018-Jan-21 18:28N 33°58' E 131°05'0 0.0
2018-Jan-21 17:58N 33°57' E 131°05'0 0.0
2018-Jan-21 17:30N 33°58' E 131°05'5 9.3
2018-Jan-21 17:00N 33°54' E 131°09'612.0
2018-Jan-21 16:30N 33°52' E 131°15'612.5
2018-Jan-21 16:00N 33°51' E 131°23'612.9
2018-Jan-21 15:30N 33°50' E 131°30'612.9
2018-Jan-21 15:00N 33°49' E 131°38'713.1
2018-Jan-21 14:30N 33°48' E 131°46'1013.0
2018-Jan-21 13:43N 33°46' E 131°58'312.5
2018-Jan-21 13:30N 33°46' E 132°01'812.2
2018-Jan-21 12:50N 33°49' E 132°10'412.1
2018-Jan-21 12:30N 33°50' E 132°15'1111.9
2018-Jan-21 11:33N 33°52' E 132°28'312.6
2018-Jan-21 11:20N 33°53' E 132°31'412.9
2018-Jan-21 11:00N 33°54' E 132°36'713.0
2018-Jan-21 10:29N 33°58' E 132°43'72 4.9
2018-Jan-20 19:32N 34°27' E 134°03'1812.0
2018-Jan-20 18:03N 34°21' E 134°24'112.7
2018-Jan-20 18:00N 34°21' E 134°24'713.0
2018-Jan-20 17:29N 34°18' E 134°32'613.1
2018-Jan-20 17:00N 34°15' E 134°39'911.0
2018-Jan-20 16:11N 34°07' E 134°43'312.8
2018-Jan-20 15:55N 34°04' E 134°44'612.7
2018-Jan-20 15:29N 33°59' E 134°47'712.9
2018-Jan-20 14:54N 33°52' E 134°51'1 0.0
2018-Jan-19 10:32N 33°51' E 134°51'012.2
2018-Jan-19 10:30N 33°52' E 134°51'612.5
2018-Jan-19 10:00N 33°57' E 134°48'612.8
2018-Jan-19 09:30N 34°03' E 134°45'712.7
2018-Jan-19 08:59N 34°09' E 134°42'612.7
2018-Jan-19 08:30N 34°15' E 134°38'612.2
2018-Jan-19 08:00N 34°18' E 134°32'712.9
2018-Jan-19 07:30N 34°20' E 134°25'  

Dump ship's entire track history